createdAt,value
2023-02-22T00:01:35.445Z,13.51
2023-02-22T00:04:04.056Z,13.32
2023-02-22T00:06:31.255Z,13.24
2023-02-22T00:08:58.609Z,13.36
2023-02-22T00:11:26.462Z,13.58
2023-02-22T00:13:57.122Z,13.83
2023-02-22T00:16:24.897Z,13.79
2023-02-22T00:18:52.457Z,13.68
2023-02-22T00:21:19.672Z,13.36
2023-02-22T00:23:47.206Z,13.38
2023-02-22T00:26:18.274Z,13.17
2023-02-22T00:28:47.106Z,13.22
2023-02-22T00:31:15.047Z,13.09
2023-02-22T00:33:42.906Z,13.07
2023-02-22T00:36:11.127Z,12.97
2023-02-22T00:38:38.911Z,12.87
2023-02-22T00:41:06.150Z,12.75
2023-02-22T00:43:33.495Z,13.08
2023-02-22T00:46:01.035Z,13.06
2023-02-22T00:48:28.491Z,13.21
2023-02-22T00:50:55.688Z,13.36
2023-02-22T00:53:23.897Z,13.35
2023-02-22T00:55:51.096Z,13.42
2023-02-22T00:58:18.724Z,13.30
2023-02-22T01:00:46.265Z,13.36
2023-02-22T01:03:15.148Z,13.50
2023-02-22T01:05:42.460Z,13.56
2023-02-22T01:08:10.841Z,13.60
2023-02-22T01:10:38.358Z,13.59
2023-02-22T01:13:09.181Z,13.51
2023-02-22T01:15:37.543Z,13.49
2023-02-22T01:18:05.286Z,13.48
2023-02-22T01:20:32.661Z,13.56
2023-02-22T01:23:01.026Z,13.61
2023-02-22T01:25:29.988Z,13.66
2023-02-22T01:27:57.605Z,13.64
2023-02-22T01:30:26.493Z,13.58
2023-02-22T01:32:53.812Z,13.42
2023-02-22T01:35:27.697Z,13.31
2023-02-22T01:37:55.471Z,13.34
2023-02-22T01:40:23.873Z,13.40
2023-02-22T01:42:51.705Z,13.40
2023-02-22T01:45:32.832Z,13.26
2023-02-22T01:48:03.340Z,13.31
2023-02-22T01:50:32.140Z,13.23
2023-02-22T01:52:59.291Z,13.13
2023-02-22T01:55:26.911Z,13.16
2023-02-22T01:57:54.383Z,13.14
2023-02-22T02:00:22.291Z,13.11
2023-02-22T02:02:54.558Z,13.09
2023-02-22T02:05:24.768Z,13.22
2023-02-22T02:07:52.853Z,13.24
2023-02-22T02:10:21.489Z,13.25
2023-02-22T02:12:49.595Z,13.13
2023-02-22T02:15:20.131Z,13.03
2023-02-22T02:17:47.740Z,13.11
2023-02-22T02:20:17.940Z,12.96
2023-02-22T02:22:54.611Z,13.05
2023-02-22T02:25:40.593Z,13.02
2023-02-22T02:28:07.990Z,13.07
2023-02-22T02:30:41.269Z,13.11
2023-02-22T02:33:24.974Z,13.10
2023-02-22T02:36:03.340Z,13.17
2023-02-22T02:38:32.658Z,13.18
2023-02-22T02:41:05.556Z,13.21
2023-02-22T02:43:53.270Z,13.21
2023-02-22T02:46:36.920Z,13.15
2023-02-22T02:49:12.104Z,13.34
2023-02-22T02:51:40.358Z,13.30
2023-02-22T02:54:07.837Z,13.12
2023-02-22T02:56:34.964Z,13.27
2023-02-22T02:59:02.112Z,13.30
2023-02-22T03:01:29.595Z,13.38
2023-02-22T03:04:23.275Z,13.18
2023-02-22T03:07:20.155Z,12.78
2023-02-22T03:10:02.426Z,13.16
2023-02-22T03:12:32.652Z,13.35
2023-02-22T03:15:14.744Z,13.24
2023-02-22T03:17:51.347Z,13.00
2023-02-22T03:20:31.973Z,13.01
2023-02-22T03:23:15.175Z,12.77
2023-02-22T03:25:48.878Z,12.90
2023-02-22T03:28:17.218Z,13.28
2023-02-22T03:30:51.931Z,13.19
2023-02-22T03:33:28.851Z,13.32
2023-02-22T03:35:59.914Z,13.20
2023-02-22T03:38:28.024Z,13.38
2023-02-22T03:40:55.630Z,13.26
2023-02-22T03:43:25.006Z,13.32
2023-02-22T03:45:53.210Z,13.33
2023-02-22T03:48:20.756Z,13.52
2023-02-22T03:50:48.180Z,13.49
2023-02-22T03:53:16.871Z,13.59
2023-02-22T03:55:44.234Z,13.58
2023-02-22T03:58:11.919Z,13.53
2023-02-22T04:00:39.386Z,13.65
2023-02-22T04:03:07.083Z,13.68
2023-02-22T04:05:34.304Z,13.66
2023-02-22T04:08:02.116Z,13.63
2023-02-22T04:10:31.735Z,13.69
2023-02-22T04:13:00.085Z,13.59
2023-02-22T04:15:27.355Z,13.67
2023-02-22T04:17:55.510Z,13.61
2023-02-22T04:20:25.574Z,13.49
2023-02-22T04:22:53.558Z,13.68
2023-02-22T04:25:21.649Z,13.75
2023-02-22T04:27:48.860Z,13.80
2023-02-22T04:30:17.705Z,13.76
2023-02-22T04:32:45.172Z,13.78
2023-02-22T04:35:12.585Z,13.68
2023-02-22T04:37:39.831Z,13.75
2023-02-22T04:40:08.052Z,13.88
2023-02-22T04:42:36.020Z,13.89
2023-02-22T04:45:03.811Z,13.85
2023-02-22T04:47:31.276Z,13.78
2023-02-22T04:50:00.432Z,13.81
2023-02-22T04:52:27.838Z,13.76
2023-02-22T04:54:55.294Z,13.73
2023-02-22T04:57:22.436Z,13.72
2023-02-22T04:59:51.186Z,13.75
2023-02-22T05:02:19.405Z,13.71
2023-02-22T05:04:46.722Z,13.79
2023-02-22T05:07:13.980Z,13.81
2023-02-22T05:09:41.444Z,13.63
2023-02-22T05:12:08.615Z,13.75
2023-02-22T05:14:35.841Z,13.79
2023-02-22T05:17:03.779Z,13.78
2023-02-22T05:19:30.974Z,13.85
2023-02-22T05:21:58.175Z,13.79
2023-02-22T05:24:25.596Z,13.78
2023-02-22T05:26:53.295Z,13.79
2023-02-22T05:29:21.115Z,13.77
2023-02-22T05:31:48.789Z,13.84
2023-02-22T05:34:15.987Z,13.60
2023-02-22T05:36:43.198Z,13.73
2023-02-22T05:39:10.612Z,13.81
2023-02-22T05:41:37.756Z,13.77
2023-02-22T05:44:04.999Z,13.62
2023-02-22T05:46:32.522Z,13.77
2023-02-22T05:48:59.779Z,13.84
2023-02-22T05:51:27.020Z,13.74
2023-02-22T05:53:54.426Z,13.82
2023-02-22T05:56:26.004Z,13.86
2023-02-22T05:58:53.346Z,13.88
2023-02-22T06:01:21.219Z,13.75
2023-02-22T06:03:49.429Z,13.84
2023-02-22T06:06:16.782Z,13.86
2023-02-22T06:08:44.066Z,13.94
2023-02-22T06:11:11.585Z,13.74
2023-02-22T06:13:39.014Z,13.88
2023-02-22T06:16:06.669Z,13.98
2023-02-22T06:18:34.138Z,13.69
2023-02-22T06:21:01.348Z,14.03
2023-02-22T06:23:28.478Z,14.01
2023-02-22T06:25:55.920Z,14.19
2023-02-22T06:28:23.771Z,14.25
2023-02-22T06:30:50.953Z,14.38
2023-02-22T06:33:18.382Z,14.40
2023-02-22T06:35:45.603Z,14.31
2023-02-22T06:38:12.907Z,14.27
2023-02-22T06:40:40.326Z,14.29
2023-02-22T06:43:07.668Z,14.37
2023-02-22T06:45:34.827Z,14.45
2023-02-22T06:48:02.289Z,14.43
2023-02-22T06:50:30.010Z,14.53
2023-02-22T06:52:57.377Z,14.23
2023-02-22T06:55:25.982Z,14.47
2023-02-22T06:57:53.376Z,14.38
2023-02-22T07:00:21.328Z,14.59
2023-02-22T07:02:48.893Z,14.52
2023-02-22T07:05:17.198Z,14.38
2023-02-22T07:07:44.458Z,14.63
2023-02-22T07:10:17.997Z,14.70
2023-02-22T07:12:45.213Z,14.78
2023-02-22T07:15:13.734Z,14.74
2023-02-22T07:17:41.309Z,14.91
2023-02-22T07:20:09.069Z,14.77
2023-02-22T07:22:36.544Z,14.81
2023-02-22T07:25:03.743Z,15.04
2023-02-22T07:27:30.967Z,15.10
2023-02-22T07:29:58.762Z,15.19
2023-02-22T07:32:26.002Z,15.27
2023-02-22T07:34:53.260Z,15.30
2023-02-22T07:37:21.312Z,15.42
2023-02-22T07:39:48.496Z,15.52
2023-02-22T07:42:15.739Z,15.45
2023-02-22T07:44:43.895Z,15.63
2023-02-22T07:47:13.028Z,16.05
2023-02-22T07:49:40.182Z,16.37
2023-02-22T07:52:07.810Z,16.90
2023-02-22T07:54:34.985Z,19.52
2023-02-22T07:57:03.494Z,21.23
2023-02-22T07:59:30.913Z,22.14
2023-02-22T08:01:58.107Z,22.90
2023-02-22T08:04:25.634Z,22.36
2023-02-22T08:06:52.794Z,22.48
2023-02-22T08:09:19.945Z,23.25
2023-02-22T08:11:47.436Z,23.06
2023-02-22T08:14:15.817Z,23.61
2023-02-22T08:16:42.970Z,24.20
2023-02-22T08:19:10.508Z,22.93
2023-02-22T08:21:37.658Z,22.71
2023-02-22T08:24:04.995Z,22.12
2023-02-22T08:26:32.441Z,21.75
2023-02-22T08:28:59.583Z,21.16
2023-02-22T08:31:26.866Z,20.46
2023-02-22T08:33:54.390Z,20.38
2023-02-22T08:36:21.691Z,20.34
2023-02-22T08:38:49.811Z,19.83
2023-02-22T08:41:17.629Z,19.72
2023-02-22T08:43:45.164Z,19.21
2023-02-22T08:46:12.503Z,19.24
2023-02-22T08:48:45.559Z,18.94
2023-02-22T08:51:12.778Z,18.51
2023-02-22T08:53:40.186Z,18.52
2023-02-22T08:56:07.386Z,17.88
2023-02-22T08:58:35.185Z,18.09
2023-02-22T09:01:02.622Z,17.64
2023-02-22T09:03:29.814Z,18.29
2023-02-22T09:05:57.003Z,18.22
2023-02-22T09:08:24.442Z,18.15
2023-02-22T09:10:51.837Z,18.06
2023-02-22T09:13:19.014Z,17.82
2023-02-22T09:15:46.458Z,17.50
2023-02-22T09:18:14.745Z,17.67
2023-02-22T09:20:42.029Z,17.29
2023-02-22T09:23:09.858Z,17.44
2023-02-22T09:25:38.805Z,17.70
2023-02-22T09:28:06.041Z,17.51
2023-02-22T09:30:34.472Z,17.67
2023-02-22T09:33:12.177Z,17.43
2023-02-22T09:35:42.810Z,17.22
2023-02-22T09:38:10.496Z,17.19
2023-02-22T09:40:44.907Z,17.45
2023-02-22T09:43:21.430Z,17.41
2023-02-22T09:45:54.704Z,17.24
2023-02-22T09:48:22.744Z,17.66
2023-02-22T09:50:50.082Z,17.44
2023-02-22T09:53:32.033Z,17.63
2023-02-22T09:56:04.013Z,17.70
2023-02-22T09:58:34.592Z,17.47
2023-02-22T10:01:10.603Z,17.15
2023-02-22T10:03:42.488Z,17.34
2023-02-22T10:06:10.727Z,17.35
2023-02-22T10:08:38.776Z,17.40
2023-02-22T10:11:10.343Z,17.03
2023-02-22T10:13:43.652Z,17.52
2023-02-22T10:16:26.161Z,17.58
2023-02-22T10:18:57.130Z,16.85
2023-02-22T10:21:43.259Z,16.95
2023-02-22T10:24:20.187Z,17.23
2023-02-22T10:26:47.431Z,17.08
2023-02-22T10:29:32.654Z,17.15
2023-02-22T10:32:01.608Z,17.40
2023-02-22T10:34:40.241Z,17.00
2023-02-22T10:37:30.718Z,16.95
2023-02-22T10:40:17.824Z,17.04
2023-02-22T10:42:45.140Z,17.34
2023-02-22T10:45:22.476Z,17.46
2023-02-22T10:47:50.006Z,17.58
2023-02-22T10:50:17.603Z,17.49
2023-02-22T10:52:44.815Z,17.42
2023-02-22T10:55:16.146Z,17.63
2023-02-22T10:57:47.239Z,17.69
2023-02-22T11:00:26.360Z,17.33
2023-02-22T11:03:04.221Z,17.49
2023-02-22T11:05:38.475Z,17.20
2023-02-22T11:08:20.994Z,16.90
2023-02-22T11:10:52.562Z,17.08
2023-02-22T11:13:27.352Z,16.87
2023-02-22T11:15:55.673Z,17.12
2023-02-22T11:18:41.307Z,16.81
2023-02-22T11:21:10.360Z,17.09
2023-02-22T11:23:38.595Z,17.16
2023-02-22T11:26:10.523Z,17.27
2023-02-22T11:28:38.017Z,17.51
2023-02-22T11:31:13.033Z,17.48
2023-02-22T11:33:40.539Z,17.35
2023-02-22T11:36:09.420Z,17.45
2023-02-22T11:38:37.503Z,17.89
2023-02-22T11:41:04.972Z,17.50
2023-02-22T11:43:32.217Z,17.76
2023-02-22T11:46:03.975Z,18.11
2023-02-22T11:48:32.537Z,17.98
2023-02-22T11:51:00.263Z,16.45
2023-02-22T11:53:45.985Z,16.88
2023-02-22T11:56:28.356Z,17.24
2023-02-22T11:59:04.677Z,17.43
2023-02-22T12:02:00.036Z,17.30
2023-02-22T12:05:02.890Z,17.34
2023-02-22T12:07:39.410Z,17.58
2023-02-22T12:10:29.240Z,17.66
2023-02-22T12:12:56.368Z,16.84
2023-02-22T12:15:28.957Z,17.36
2023-02-22T12:18:02.187Z,16.96
2023-02-22T12:20:30.984Z,17.16
2023-02-22T12:23:01.420Z,17.49
2023-02-22T12:25:31.955Z,17.92
2023-02-22T12:28:00.619Z,18.07
2023-02-22T12:30:29.905Z,18.07
2023-02-22T12:32:59.695Z,18.14
2023-02-22T12:35:28.438Z,17.33
2023-02-22T12:38:01.877Z,17.29
2023-02-22T12:40:57.177Z,17.65
2023-02-22T12:43:29.042Z,17.80
2023-02-22T12:45:59.529Z,17.38
2023-02-22T12:48:46.372Z,17.84
2023-02-22T12:51:19.685Z,18.10
2023-02-22T12:53:52.618Z,18.23
2023-02-22T12:56:29.559Z,18.12
2023-02-22T12:59:02.955Z,18.12
2023-02-22T13:01:33.995Z,18.07
2023-02-22T13:04:19.438Z,17.92
2023-02-22T13:06:56.821Z,17.77
2023-02-22T13:09:26.602Z,18.12
2023-02-22T13:11:57.540Z,18.21
2023-02-22T13:14:43.804Z,18.02
2023-02-22T13:17:21.162Z,17.70
2023-02-22T13:19:57.803Z,17.88
2023-02-22T13:22:41.293Z,17.77
2023-02-22T13:25:09.209Z,18.02
2023-02-22T13:27:38.557Z,17.55
2023-02-22T13:30:06.198Z,18.14
2023-02-22T13:32:52.171Z,17.99
2023-02-22T13:35:21.438Z,17.95
2023-02-22T13:38:07.563Z,17.96
2023-02-22T13:40:35.039Z,18.06
2023-02-22T13:43:31.393Z,17.67
2023-02-22T13:46:25.224Z,17.82
2023-02-22T13:49:11.305Z,18.02
2023-02-22T13:51:48.869Z,17.64
2023-02-22T13:54:18.227Z,17.80
2023-02-22T13:56:46.135Z,17.90
2023-02-22T13:59:40.099Z,17.77
2023-02-22T14:02:08.062Z,17.91
2023-02-22T14:04:38.195Z,18.04
2023-02-22T14:07:26.562Z,17.89
2023-02-22T14:09:56.144Z,17.92
2023-02-22T14:12:29.900Z,18.07
2023-02-22T14:15:18.744Z,18.05
2023-02-22T14:17:55.061Z,18.25
2023-02-22T14:20:30.180Z,18.00
2023-02-22T14:22:57.869Z,18.23
2023-02-22T14:25:36.816Z,18.38
2023-02-22T14:28:06.239Z,18.30
2023-02-22T14:30:34.840Z,18.46
2023-02-22T14:33:02.297Z,18.20
2023-02-22T14:35:49.135Z,18.37
2023-02-22T14:38:21.092Z,17.99
2023-02-22T14:40:48.587Z,18.25
2023-02-22T14:43:19.932Z,18.28
2023-02-22T14:45:54.122Z,18.29
2023-02-22T14:48:21.321Z,18.35
2023-02-22T14:50:51.171Z,18.42
2023-02-22T14:53:21.785Z,18.33
2023-02-22T14:55:58.020Z,18.33
2023-02-22T14:58:46.107Z,18.19
2023-02-22T15:01:20.230Z,18.45
2023-02-22T15:03:51.402Z,18.54
2023-02-22T15:06:25.845Z,18.46
2023-02-22T15:09:04.976Z,18.46
2023-02-22T15:11:32.525Z,18.45
2023-02-22T15:14:00.549Z,18.41
2023-02-22T15:16:32.150Z,18.47
2023-02-22T15:19:00.885Z,18.44
2023-02-22T15:21:28.409Z,18.40
2023-02-22T15:24:01.101Z,18.31
2023-02-22T15:26:35.344Z,18.46
2023-02-22T15:29:02.963Z,18.41
2023-02-22T15:31:30.747Z,18.47
2023-02-22T15:33:58.100Z,18.60
2023-02-22T15:36:26.672Z,18.65
2023-02-22T15:38:55.865Z,18.60
2023-02-22T15:41:27.923Z,18.52
2023-02-22T15:44:17.664Z,18.51
2023-02-22T15:46:48.647Z,18.52
2023-02-22T15:49:15.994Z,18.48
2023-02-22T15:51:46.410Z,18.52
2023-02-22T15:54:26.566Z,18.50
2023-02-22T15:56:57.709Z,18.47
2023-02-22T15:59:30.313Z,18.44
2023-02-22T16:01:57.864Z,18.39
2023-02-22T16:04:27.210Z,18.36
2023-02-22T16:07:01.959Z,18.32
2023-02-22T16:09:30.447Z,18.15
2023-02-22T16:12:20.857Z,17.96
2023-02-22T16:14:52.468Z,18.03
2023-02-22T16:17:31.453Z,18.03
2023-02-22T16:19:59.809Z,17.97
2023-02-22T16:22:34.018Z,18.00
2023-02-22T16:25:35.766Z,18.01
2023-02-22T16:28:06.322Z,17.99
2023-02-22T16:30:37.863Z,18.00
2023-02-22T16:33:09.270Z,17.96
2023-02-22T16:35:37.961Z,18.00
2023-02-22T16:38:16.833Z,17.97
2023-02-22T16:40:50.573Z,17.95
2023-02-22T16:43:25.124Z,17.91
2023-02-22T16:45:55.393Z,17.88
2023-02-22T16:48:23.788Z,17.75
2023-02-22T16:50:51.725Z,17.67
2023-02-22T16:53:20.124Z,17.64
2023-02-22T16:55:47.552Z,17.63
2023-02-22T16:58:15.263Z,17.61
2023-02-22T17:00:42.852Z,17.61
2023-02-22T17:03:10.823Z,17.59
2023-02-22T17:05:38.233Z,17.57
2023-02-22T17:08:05.874Z,17.53
2023-02-22T17:10:33.430Z,17.47
2023-02-22T17:13:05.229Z,17.48
2023-02-22T17:15:40.565Z,17.35
2023-02-22T17:18:13.951Z,17.36
2023-02-22T17:20:41.398Z,17.31
2023-02-22T17:23:09.062Z,17.30
2023-02-22T17:25:43.618Z,17.35
2023-02-22T17:28:11.301Z,17.35
2023-02-22T17:30:38.608Z,17.28
2023-02-22T17:33:06.658Z,17.33
2023-02-22T17:35:36.860Z,17.22
2023-02-22T17:38:08.247Z,17.24
2023-02-22T17:40:36.754Z,17.25
2023-02-22T17:43:04.204Z,17.21
2023-02-22T17:45:31.459Z,17.21
2023-02-22T17:47:59.524Z,17.19
2023-02-22T17:50:26.932Z,17.19
2023-02-22T17:52:54.209Z,17.11
2023-02-22T17:55:21.866Z,17.08
2023-02-22T17:57:52.773Z,17.14
2023-02-22T18:00:33.040Z,17.11
2023-02-22T18:03:01.777Z,17.04
2023-02-22T18:05:29.315Z,16.98
2023-02-22T18:07:56.705Z,16.96
2023-02-22T18:10:26.351Z,16.90
2023-02-22T18:12:53.755Z,16.80
2023-02-22T18:15:28.219Z,16.69
2023-02-22T18:17:56.113Z,16.68
2023-02-22T18:20:38.072Z,16.65
2023-02-22T18:23:07.489Z,16.47
2023-02-22T18:25:36.443Z,16.52
2023-02-22T18:28:06.183Z,16.48
2023-02-22T18:30:35.923Z,16.54
2023-02-22T18:33:06.892Z,16.55
2023-02-22T18:35:34.531Z,16.52
2023-02-22T18:38:01.948Z,16.40
2023-02-22T18:40:29.296Z,16.39
2023-02-22T18:42:56.940Z,16.29
2023-02-22T18:45:26.273Z,16.33
2023-02-22T18:47:56.378Z,16.25
2023-02-22T18:50:23.791Z,16.17
2023-02-22T18:52:51.180Z,16.05
2023-02-22T18:55:19.029Z,16.02
2023-02-22T18:57:47.029Z,15.85
2023-02-22T19:00:15.943Z,15.27
2023-02-22T19:02:43.619Z,15.51
2023-02-22T19:05:17.413Z,15.77
2023-02-22T19:07:45.217Z,15.81
2023-02-22T19:10:12.843Z,15.09
2023-02-22T19:12:40.134Z,15.06
2023-02-22T19:15:08.097Z,15.44
2023-02-22T19:17:36.597Z,15.49
2023-02-22T19:20:08.794Z,15.54
2023-02-22T19:22:39.525Z,15.56
2023-02-22T19:25:08.003Z,15.44
2023-02-22T19:27:36.092Z,14.83
2023-02-22T19:30:04.665Z,14.20
2023-02-22T19:32:33.576Z,13.87
2023-02-22T19:35:06.844Z,13.79
2023-02-22T19:37:35.693Z,13.78
2023-02-22T19:40:06.927Z,14.15
2023-02-22T19:42:35.366Z,13.30
2023-02-22T19:45:03.020Z,13.41
2023-02-22T19:47:30.810Z,13.44
2023-02-22T19:49:59.829Z,13.81
2023-02-22T19:52:28.981Z,13.92
2023-02-22T19:54:56.680Z,13.64
2023-02-22T19:57:24.843Z,13.09
2023-02-22T19:59:52.408Z,13.50
2023-02-22T20:02:22.945Z,13.88
2023-02-22T20:04:51.341Z,14.05
2023-02-22T20:07:18.751Z,14.25
2023-02-22T20:09:46.129Z,14.03
2023-02-22T20:12:13.848Z,14.19
2023-02-22T20:14:41.113Z,13.44
2023-02-22T20:17:09.927Z,13.98
2023-02-22T20:19:38.772Z,14.26
2023-02-22T20:22:06.397Z,14.38
2023-02-22T20:24:33.761Z,14.38
2023-02-22T20:27:01.502Z,14.36
2023-02-22T20:29:31.773Z,14.01
2023-02-22T20:31:59.916Z,14.49
2023-02-22T20:34:31.316Z,14.06
2023-02-22T20:36:58.920Z,14.36
2023-02-22T20:39:26.139Z,14.34
2023-02-22T20:41:54.632Z,13.75
2023-02-22T20:44:22.023Z,14.09
2023-02-22T20:46:49.315Z,14.47
2023-02-22T20:49:18.774Z,13.30
2023-02-22T20:51:46.485Z,14.11
2023-02-22T20:54:13.917Z,14.33
2023-02-22T20:56:44.162Z,14.09
2023-02-22T20:59:12.768Z,14.17
2023-02-22T21:01:40.423Z,13.72
2023-02-22T21:04:10.023Z,13.89
2023-02-22T21:06:38.962Z,14.07
2023-02-22T21:09:09.564Z,14.05
2023-02-22T21:11:37.297Z,13.36
2023-02-22T21:14:04.670Z,14.07
2023-02-22T21:16:33.952Z,13.55
2023-02-22T21:19:02.461Z,13.32
2023-02-22T21:21:29.886Z,13.85
2023-02-22T21:23:57.835Z,14.27
2023-02-22T21:26:27.676Z,13.99
2023-02-22T21:28:55.566Z,14.40
2023-02-22T21:31:24.345Z,14.19
2023-02-22T21:33:53.201Z,13.43
2023-02-22T21:36:20.734Z,13.90
2023-02-22T21:38:53.290Z,14.11
2023-02-22T21:41:21.694Z,13.86
2023-02-22T21:43:49.296Z,13.89
2023-02-22T21:46:16.662Z,13.96
2023-02-22T21:48:45.265Z,14.13
2023-02-22T21:51:15.637Z,13.43
2023-02-22T21:53:45.824Z,13.92
2023-02-22T21:56:15.247Z,13.99
2023-02-22T21:58:43.502Z,13.87
2023-02-22T22:01:10.975Z,13.90
2023-02-22T22:03:38.508Z,14.02
2023-02-22T22:06:06.714Z,14.18
2023-02-22T22:08:35.242Z,13.75
2023-02-22T22:11:04.433Z,13.71
2023-02-22T22:13:32.676Z,13.81
2023-02-22T22:16:03.862Z,13.90
2023-02-22T22:18:31.319Z,13.68
2023-02-22T22:20:59.438Z,13.87
2023-02-22T22:23:26.613Z,13.57
2023-02-22T22:26:02.053Z,13.95
2023-02-22T22:28:31.529Z,14.09
2023-02-22T22:30:59.096Z,13.30
2023-02-22T22:33:26.576Z,14.00
2023-02-22T22:35:56.460Z,13.57
2023-02-22T22:38:26.396Z,13.50
2023-02-22T22:40:53.708Z,14.03
2023-02-22T22:43:20.876Z,14.04
2023-02-22T22:45:48.284Z,13.96
2023-02-22T22:48:15.444Z,13.36
2023-02-22T22:50:46.489Z,12.85
2023-02-22T22:53:13.912Z,13.46
2023-02-22T22:55:41.816Z,13.65
2023-02-22T22:58:10.255Z,13.49
2023-02-22T23:00:37.899Z,12.25
2023-02-22T23:03:05.685Z,12.19
2023-02-22T23:05:37.278Z,12.51
2023-02-22T23:08:05.049Z,12.37
2023-02-22T23:10:32.921Z,12.54
2023-02-22T23:13:00.096Z,13.14
2023-02-22T23:15:27.559Z,12.94
2023-02-22T23:17:59.268Z,13.33
2023-02-22T23:20:26.601Z,12.53
2023-02-22T23:22:55.212Z,12.78
2023-02-22T23:25:22.518Z,13.54
2023-02-22T23:27:49.811Z,13.59
2023-02-22T23:30:18.672Z,12.23
2023-02-22T23:32:46.676Z,12.43
2023-02-22T23:35:14.990Z,13.05
2023-02-22T23:37:42.553Z,12.55
2023-02-22T23:40:16.980Z,12.12
2023-02-22T23:42:48.983Z,12.31
2023-02-22T23:45:22.684Z,13.12
2023-02-22T23:47:50.519Z,12.86
2023-02-22T23:50:19.231Z,12.50
2023-02-22T23:52:46.413Z,13.47
2023-02-22T23:55:13.949Z,12.31
2023-02-22T23:57:43.194Z,12.05
